Sunlight — WDB4636 — position and weather

sailwx.info

Track history (hours):
 
Tides and Currents Weather Stations Pressure Air Temp Water Temp Dewpoint Dewpoint Depression Visibility Wind Speed Wind Dir Waves Ship Positions

Sunlight

Owner: O'Hara Corporation, Rockland, ME. More information available from US FCC via Universal Licensing System and Coast Guard Vessel Documentation Center.

Last reported at 2018-Jan-10 04:15 UTC. Time now 2018-Feb-22 09:24 UTC.
Position N 42°13' W 070°30'.
Warning: this ship's position is 43 days out of date.

MMSI: 366900670.

Date/timePositionNaut miles runAvg speedWind from/ knotsBaromVisibWave heightAir tempDewpointWater temp
2018-Jan-10 04:15N 42°13' W 070°30'2 9.5
2018-Jan-10 04:00N 42°16' W 070°31'5 9.8
2018-Jan-10 03:30N 42°20' W 070°31'510.1
2018-Jan-10 03:00N 42°25' W 070°32'510.1
2018-Jan-10 02:30N 42°30' W 070°32'510.1
2018-Jan-10 02:00N 42°36' W 070°32'5 9.7
2018-Jan-10 01:30N 42°40' W 070°31'5 9.9
2018-Jan-10 01:00N 42°45' W 070°29'510.2
2018-Jan-10 00:30N 42°50' W 070°28'510.1
2018-Jan-10 00:00N 42°55' W 070°26'84 8.7
2018-Jan-09 14:17N 43°58' W 069°08'410.1
2018-Jan-09 13:55N 44°01' W 069°05'410.1
2018-Jan-09 13:30N 44°05' W 069°03'3 6.3
2018-Jan-09 13:00N 44°07' W 069°06'0 0.3
2018-Jan-09 12:29N 44°07' W 069°06'0 0.0
2018-Jan-09 12:00N 44°07' W 069°06'0 0.0
2018-Jan-09 11:28N 44°07' W 069°06'0 0.0
2018-Jan-09 10:59N 44°07' W 069°06'0 0.0
2018-Jan-09 10:30N 44°07' W 069°06'0 0.0
2018-Jan-09 09:58N 44°07' W 069°06'0 0.0
2018-Jan-09 09:30N 44°07' W 069°06'0 0.0
2018-Jan-09 09:00N 44°07' W 069°06'0 0.0
2018-Jan-09 08:30N 44°07' W 069°06'0 0.0
2018-Jan-09 07:58N 44°07' W 069°06'0 0.0
2018-Jan-09 07:28N 44°07' W 069°06'0 0.0
2018-Jan-09 06:59N 44°07' W 069°06'0 0.0
2018-Jan-09 06:30N 44°07' W 069°06'0 0.0
2018-Jan-09 05:58N 44°07' W 069°06'0 0.0
2018-Jan-09 05:29N 44°07' W 069°06'0 0.0
2018-Jan-09 05:00N 44°07' W 069°06'0 0.0
2018-Jan-09 04:27N 44°07' W 069°06'0 0.0
2018-Jan-09 03:58N 44°07' W 069°06'0 0.0
2018-Jan-09 03:28N 44°07' W 069°06'0 0.0
2018-Jan-09 03:00N 44°07' W 069°06'0 0.0
2018-Jan-09 02:30N 44°07' W 069°06'0 0.0
2018-Jan-09 01:58N 44°07' W 069°06'0 0.0
2018-Jan-09 01:29N 44°07' W 069°06'0 0.0
2018-Jan-09 01:00N 44°07' W 069°06'0 0.0
2018-Jan-09 00:28N 44°07' W 069°06'0 0.0
2018-Jan-08 23:58N 44°07' W 069°06'0 0.0
2018-Jan-08 23:29N 44°07' W 069°06'0 0.0
2018-Jan-08 23:00N 44°07' W 069°06'0 0.0
2018-Jan-08 22:28N 44°07' W 069°06'0 0.0
2018-Jan-08 21:59N 44°07' W 069°06'0 0.0
2018-Jan-08 21:28N 44°07' W 069°06'0 0.0
2018-Jan-08 20:59N 44°07' W 069°06'0 0.0
2018-Jan-08 20:30N 44°07' W 069°06'0 0.0
2018-Jan-08 19:58N 44°07' W 069°06'0 0.0
2018-Jan-08 19:28N 44°07' W 069°06'0 0.0
2018-Jan-08 18:59N 44°07' W 069°06'0 0.0
2018-Jan-08 18:30N 44°07' W 069°06'0 0.0
2018-Jan-08 17:59N 44°07' W 069°06'0 0.0
2018-Jan-08 17:29N 44°07' W 069°06'0 0.0
2018-Jan-08 16:59N 44°07' W 069°06'0 0.0
2018-Jan-08 16:28N 44°07' W 069°06'0 0.0
2018-Jan-08 15:59N 44°07' W 069°06'0 0.0
2018-Jan-08 15:26N 44°07' W 069°06'0 0.0
2018-Jan-08 14:58N 44°07' W 069°06'0 0.0
2018-Jan-08 14:30N 44°07' W 069°06'0 0.0
2018-Jan-08 13:58N 44°07' W 069°06'0 0.0
2018-Jan-08 13:28N 44°07' W 069°06'0 0.0
2018-Jan-08 12:59N 44°07' W 069°06'0 0.0
2018-Jan-08 12:27N 44°07' W 069°06'0 0.0
2018-Jan-08 11:58N 44°07' W 069°06'0 0.0
2018-Jan-08 11:29N 44°07' W 069°06'0 0.0
2018-Jan-08 11:00N 44°07' W 069°06'0 0.0
2018-Jan-08 10:30N 44°07' W 069°06'0 0.0
2018-Jan-08 09:58N 44°07' W 069°06'0 0.0
2018-Jan-08 09:27N 44°07' W 069°06'0 0.0
2018-Jan-08 08:59N 44°07' W 069°06'0 0.0
2018-Jan-08 08:30N 44°07' W 069°06'0 0.0
2018-Jan-08 07:58N 44°07' W 069°06'0 0.0
2018-Jan-08 07:28N 44°07' W 069°06'0 0.0
2018-Jan-08 06:59N 44°07' W 069°06'0 0.0
2018-Jan-08 06:27N 44°07' W 069°06'0 0.0
2018-Jan-08 05:59N 44°07' W 069°06'0 0.0
2018-Jan-08 05:30N 44°07' W 069°06'0 0.0
2018-Jan-08 04:59N 44°07' W 069°06'0 0.0
2018-Jan-08 04:30N 44°07' W 069°06'0 0.0
2018-Jan-08 04:00N 44°07' W 069°06'0 0.0
2018-Jan-08 03:28N 44°07' W 069°06'0 0.0
2018-Jan-08 02:59N 44°07' W 069°06'0 0.0
2018-Jan-08 02:27N 44°07' W 069°06'0 0.0
2018-Jan-08 01:58N 44°07' W 069°06'0 0.0
2018-Jan-08 01:28N 44°07' W 069°06'0 0.0
2018-Jan-08 00:59N 44°07' W 069°06'0 0.0
2018-Jan-08 00:29N 44°07' W 069°06'0 0.0
2018-Jan-08 00:00N 44°07' W 069°06'0 0.0
2018-Jan-07 23:28N 44°07' W 069°06'0 0.0
2018-Jan-07 22:59N 44°07' W 069°06'0 0.0
2018-Jan-07 22:30N 44°07' W 069°06'0 0.0
2018-Jan-07 21:58N 44°07' W 069°06'0 0.0
2018-Jan-07 21:29N 44°07' W 069°06'0 0.0
2018-Jan-07 21:00N 44°07' W 069°06'0 0.0
2018-Jan-07 20:28N 44°07' W 069°06'0 0.0
2018-Jan-07 19:59N 44°07' W 069°06'0 0.0
2018-Jan-07 19:28N 44°07' W 069°06'0 0.0
2018-Jan-07 18:58N 44°07' W 069°06'0 0.0
2018-Jan-07 18:29N 44°07' W 069°06'0 0.0
2018-Jan-07 17:57N 44°07' W 069°06'0 0.0
2018-Jan-07 17:29N 44°07' W 069°06'0 0.0
2018-Jan-07 16:58N 44°07' W 069°06'0 0.0
2018-Jan-07 16:29N 44°07' W 069°06'0 0.0
2018-Jan-07 16:00N 44°07' W 069°06'0 0.0
2018-Jan-07 15:26N 44°07' W 069°06'0 0.0
2018-Jan-07 14:58N 44°07' W 069°06'0 0.0
2018-Jan-07 14:29N 44°07' W 069°06'0 0.0
2018-Jan-07 14:00N 44°07' W 069°06'0 0.0
2018-Jan-07 13:28N 44°07' W 069°06'0 0.0
2018-Jan-07 12:59N 44°07' W 069°06'0 0.0
2018-Jan-07 12:29N 44°07' W 069°06'0 0.0
2018-Jan-07 12:00N 44°07' W 069°06'0 0.0
2018-Jan-07 11:28N 44°07' W 069°06'0 0.0
2018-Jan-07 10:58N 44°07' W 069°06'0 0.0
2018-Jan-07 10:30N 44°07' W 069°06'0 0.0
2018-Jan-07 09:59N 44°07' W 069°06'0 0.0
2018-Jan-07 09:29N 44°07' W 069°06'0 0.0
2018-Jan-07 08:59N 44°07' W 069°06'0 0.0
2018-Jan-07 08:30N 44°07' W 069°06'0 0.0
2018-Jan-07 07:59N 44°07' W 069°06'0 0.0
2018-Jan-07 07:28N 44°07' W 069°06'0 0.0
2018-Jan-07 06:59N 44°07' W 069°06'0 0.0
2018-Jan-07 06:31N 44°07' W 069°06'0 0.0
2018-Jan-07 05:59N 44°07' W 069°06'0 0.0
2018-Jan-07 05:28N 44°07' W 069°06'0 0.0
2018-Jan-07 05:00N 44°07' W 069°06'0 0.0
2018-Jan-07 04:30N 44°07' W 069°06'0 0.0
2018-Jan-07 03:59N 44°07' W 069°06'0 0.0
2018-Jan-07 03:28N 44°07' W 069°06'0 0.0
2018-Jan-07 02:59N 44°07' W 069°06'0 0.0
2018-Jan-07 02:30N 44°07' W 069°06'0 0.0
2018-Jan-07 01:59N 44°07' W 069°06'0 0.0
2018-Jan-07 01:29N 44°07' W 069°06'0 0.0
2018-Jan-07 00:30N 44°07' W 069°06'0 0.0
2018-Jan-07 00:00N 44°07' W 069°06'0 0.0
2018-Jan-06 23:30N 44°07' W 069°06'0 0.0
2018-Jan-06 22:59N 44°07' W 069°06'0 0.0
2018-Jan-06 22:30N 44°07' W 069°06'0 0.0
2018-Jan-06 22:00N 44°07' W 069°06'0 0.0
2018-Jan-06 21:29N 44°07' W 069°06'0 0.0
2018-Jan-06 21:00N 44°07' W 069°06'0 0.0
2018-Jan-06 20:30N 44°07' W 069°06'0 0.0
2018-Jan-06 19:59N 44°07' W 069°06'0 0.0
2018-Jan-06 19:30N 44°07' W 069°06'0 0.0
2018-Jan-06 18:59N 44°07' W 069°06'0 0.0
2018-Jan-06 18:30N 44°07' W 069°06'0 0.0
2018-Jan-06 17:59N 44°07' W 069°06'0 0.0
2018-Jan-06 17:29N 44°07' W 069°06'0 0.0
2018-Jan-06 16:59N 44°07' W 069°06'0 0.0
2018-Jan-06 16:29N 44°07' W 069°06'0 0.0
2018-Jan-06 16:00N 44°07' W 069°06'0 0.0
2018-Jan-06 15:30N 44°07' W 069°06'0 0.0
2018-Jan-06 15:00N 44°07' W 069°06'0 0.0
2018-Jan-06 14:30N 44°07' W 069°06'0 0.0
2018-Jan-06 13:58N 44°07' W 069°06'0 0.0
2018-Jan-06 13:30N 44°07' W 069°06'0 0.0
2018-Jan-06 13:00N 44°07' W 069°06'0 0.0
2018-Jan-06 12:30N 44°07' W 069°06'0 0.0
2018-Jan-06 12:00N 44°07' W 069°06'0 0.0
2018-Jan-06 11:30N 44°07' W 069°06'0 0.0
2018-Jan-06 10:59N 44°07' W 069°06'0 0.0
2018-Jan-06 10:29N 44°07' W 069°06'0 0.0
2018-Jan-06 09:58N 44°07' W 069°06'0 0.0
2018-Jan-06 09:30N 44°07' W 069°06'0 0.0
2018-Jan-06 09:00N 44°07' W 069°06'0 0.0
2018-Jan-06 08:28N 44°07' W 069°06'0 0.0
2018-Jan-06 07:59N 44°07' W 069°06'0 0.0
2018-Jan-06 07:30N 44°07' W 069°06'0 0.0
2018-Jan-06 06:58N 44°07' W 069°06'0 0.0
2018-Jan-06 06:30N 44°07' W 069°06'0 0.0
2018-Jan-06 05:59N 44°07' W 069°06'0 0.0
2018-Jan-06 05:30N 44°07' W 069°06'0 0.0
2018-Jan-06 05:00N 44°07' W 069°06'0 0.0
2018-Jan-06 04:30N 44°07' W 069°06'0 0.0
2018-Jan-06 03:59N 44°07' W 069°06'0 0.0
2018-Jan-06 03:28N 44°07' W 069°06'0 0.0
2018-Jan-06 02:59N 44°07' W 069°06'0 0.0
2018-Jan-06 02:30N 44°07' W 069°06'0 0.0
2018-Jan-06 01:59N 44°07' W 069°06'0 0.0
2018-Jan-06 01:29N 44°07' W 069°06'0 0.0
2018-Jan-06 01:00N 44°07' W 069°06'0 0.0
2018-Jan-06 00:28N 44°07' W 069°06'0 0.0
2018-Jan-05 23:58N 44°07' W 069°06'0 0.0
2018-Jan-05 23:28N 44°07' W 069°06'0 0.0
2018-Jan-05 22:58N 44°07' W 069°06'0 0.0
2018-Jan-05 22:30N 44°07' W 069°06'0 0.0
2018-Jan-05 21:59N 44°07' W 069°06'0 0.0
2018-Jan-05 21:29N 44°07' W 069°06'0 0.0
2018-Jan-05 20:59N 44°07' W 069°06'0 0.0
2018-Jan-05 20:29N 44°07' W 069°06'0 0.0
2018-Jan-05 20:00N 44°07' W 069°06'0 0.0
2018-Jan-05 19:29N 44°07' W 069°06'0 0.0
2018-Jan-05 18:59N 44°07' W 069°06'0 0.0
2018-Jan-05 18:30N 44°07' W 069°06'0 0.0
2018-Jan-05 17:58N 44°07' W 069°06'0 0.0
2018-Jan-05 17:30N 44°07' W 069°06'0 0.0
2018-Jan-05 17:00N 44°07' W 069°06'0 0.0
2018-Jan-05 16:30N 44°07' W 069°06'0 0.0
2018-Jan-05 15:59N 44°07' W 069°06'0 0.0
2018-Jan-05 15:29N 44°07' W 069°06'0 0.0
2018-Jan-05 14:59N 44°07' W 069°06'0 0.0
2018-Jan-05 14:29N 44°07' W 069°06'0 0.0
2018-Jan-05 13:59N 44°07' W 069°06'0 0.0
2018-Jan-05 13:30N 44°07' W 069°06'0 0.0
2018-Jan-05 13:00N 44°07' W 069°06'0 0.0
2018-Jan-05 12:28N 44°07' W 069°06'0 0.0
2018-Jan-05 11:59N 44°07' W 069°06'0 0.0
2018-Jan-05 11:30N 44°07' W 069°06'0 0.0
2018-Jan-05 10:59N 44°07' W 069°06'0 0.0
2018-Jan-05 10:30N 44°07' W 069°06'0 0.0
2018-Jan-05 10:00N 44°07' W 069°06'0 0.0
2018-Jan-05 09:30N 44°07' W 069°06'0 0.0
2018-Jan-05 08:59N 44°07' W 069°06'0 0.0
2018-Jan-05 08:28N 44°07' W 069°06'0 0.0
2018-Jan-05 07:59N 44°07' W 069°06'0 0.0
2018-Jan-05 07:30N 44°07' W 069°06'0 0.0
2018-Jan-05 07:00N 44°07' W 069°06'0 0.0
2018-Jan-05 06:31N 44°07' W 069°06'0 0.0
2018-Jan-05 05:58N 44°07' W 069°06'0 0.0
2018-Jan-05 05:29N 44°07' W 069°06'0 0.0
2018-Jan-05 04:59N 44°07' W 069°06'0 0.0
2018-Jan-05 04:30N 44°07' W 069°06'0 0.0
2018-Jan-05 04:00N 44°07' W 069°06'0 0.0
2018-Jan-05 03:30N 44°07' W 069°06'0 0.0
2018-Jan-05 03:00N 44°07' W 069°06'0 0.0
2018-Jan-05 02:30N 44°07' W 069°06'0 0.0
2018-Jan-05 01:59N 44°07' W 069°06'0 0.0
2018-Jan-05 01:28N 44°07' W 069°06'0 0.0
2018-Jan-05 01:00N 44°07' W 069°06'0 0.0
2018-Jan-05 00:29N 44°07' W 069°06'0 0.0
2018-Jan-04 23:58N 44°07' W 069°06'0 0.0
2018-Jan-04 23:29N 44°07' W 069°06'0 0.0
2018-Jan-04 23:00N 44°07' W 069°06'0 0.0
2018-Jan-04 22:31N 44°07' W 069°06'0 0.0
2018-Jan-04 22:00N 44°07' W 069°06'0 0.0
2018-Jan-04 21:29N 44°07' W 069°06'0 0.0
2018-Jan-04 20:59N 44°07' W 069°06'0 0.0
2018-Jan-04 20:29N 44°07' W 069°06'0 0.0
2018-Jan-04 19:59N 44°07' W 069°06'0 0.0
2018-Jan-04 19:30N 44°07' W 069°06'0 0.0
2018-Jan-04 19:00N 44°07' W 069°06'0 0.0
2018-Jan-04 18:29N 44°07' W 069°06'0 0.0
2018-Jan-04 18:00N 44°07' W 069°06'0 0.0
2018-Jan-04 17:29N 44°07' W 069°06'0 0.0
2018-Jan-04 17:00N 44°07' W 069°06'0 0.0
2018-Jan-04 16:30N 44°07' W 069°06'0 0.0
2018-Jan-04 15:58N 44°07' W 069°06'0 0.0
2018-Jan-04 15:30N 44°07' W 069°06'0 0.0
2018-Jan-04 14:59N 44°07' W 069°06'0 0.0
2018-Jan-04 14:30N 44°07' W 069°06'0 0.0
2018-Jan-04 13:59N 44°07' W 069°06'0 0.0
2018-Jan-04 13:29N 44°07' W 069°06'0 0.0
2018-Jan-04 12:59N 44°07' W 069°06'0 0.0
2018-Jan-04 12:29N 44°07' W 069°06'0 0.0
2018-Jan-04 12:00N 44°07' W 069°06'0 0.0
2018-Jan-04 11:29N 44°07' W 069°06'0 0.0
2018-Jan-04 11:00N 44°07' W 069°06'0 0.0
2018-Jan-04 10:29N 44°07' W 069°06'0 0.0
2018-Jan-04 09:59N 44°07' W 069°06'0 0.0
2018-Jan-04 09:30N 44°07' W 069°06'0 0.0
2018-Jan-04 09:00N 44°07' W 069°06'0 0.0
2018-Jan-04 08:30N 44°07' W 069°06'0 0.0
2018-Jan-04 07:58N 44°07' W 069°06'0 0.0
2018-Jan-04 07:30N 44°07' W 069°06'0 0.0
2018-Jan-04 07:00N 44°07' W 069°06'0 0.0
2018-Jan-04 06:29N 44°07' W 069°06'0 0.0
2018-Jan-04 06:00N 44°07' W 069°06'0 0.0
2018-Jan-04 05:29N 44°07' W 069°06'0 0.0
2018-Jan-04 04:58N 44°07' W 069°06'0 0.0
2018-Jan-04 04:30N 44°07' W 069°06'0 0.0
2018-Jan-04 04:00N 44°07' W 069°06'0 0.0
2018-Jan-04 03:29N 44°07' W 069°06'0 0.0
2018-Jan-04 02:58N 44°07' W 069°06'0 0.0
2018-Jan-04 02:29N 44°07' W 069°06'0 0.0
2018-Jan-04 02:00N 44°07' W 069°06'0 0.0
2018-Jan-04 01:29N 44°07' W 069°06'0 0.0
2018-Jan-04 00:59N 44°07' W 069°06'0 0.0
2018-Jan-04 00:29N 44°07' W 069°06'0 0.0
2018-Jan-04 00:00N 44°07' W 069°06'0 0.0
2018-Jan-03 23:29N 44°07' W 069°06'0 0.0
2018-Jan-03 23:00N 44°07' W 069°06'0 0.0
2018-Jan-03 22:30N 44°07' W 069°06'0 0.0
2018-Jan-03 21:59N 44°07' W 069°06'0 0.0
2018-Jan-03 21:28N 44°07' W 069°06'0 0.0
2018-Jan-03 20:59N 44°07' W 069°06'0 0.0
2018-Jan-03 20:29N 44°07' W 069°06'0 0.0
2018-Jan-03 19:58N 44°07' W 069°06'0 0.0
2018-Jan-03 19:30N 44°07' W 069°06'0 0.0
2018-Jan-03 19:00N 44°07' W 069°06'0 0.0
2018-Jan-03 18:30N 44°07' W 069°06'0 0.0
2018-Jan-03 17:58N 44°07' W 069°06'0 0.0
2018-Jan-03 17:28N 44°07' W 069°06'0 0.0
2018-Jan-03 16:59N 44°07' W 069°06'0 0.0
2018-Jan-03 16:29N 44°07' W 069°06'0 0.0
2018-Jan-03 15:59N 44°07' W 069°06'0 0.0
2018-Jan-03 15:30N 44°07' W 069°06'0 0.0
2018-Jan-03 14:59N 44°07' W 069°06'0 0.0
2018-Jan-03 14:30N 44°07' W 069°06'0 0.0
2018-Jan-03 14:00N 44°07' W 069°06'0 0.0
2018-Jan-03 13:30N 44°07' W 069°06'0 0.0
2018-Jan-03 13:00N 44°07' W 069°06'0 0.0
2018-Jan-03 12:30N 44°07' W 069°06'0 0.0
2018-Jan-03 11:53N 44°07' W 069°06'0 0.0
2018-Jan-03 11:29N 44°07' W 069°06'0 0.0
2018-Jan-03 11:00N 44°07' W 069°06'0 0.0
2018-Jan-03 10:30N 44°07' W 069°06'0 0.0
2018-Jan-03 10:00N 44°07' W 069°06'0 0.0
2018-Jan-03 09:29N 44°07' W 069°06'0 0.0
2018-Jan-03 08:59N 44°07' W 069°06'0 0.0
2018-Jan-03 08:30N 44°07' W 069°06'0 0.0
2018-Jan-03 08:00N 44°07' W 069°06'0 0.0
2018-Jan-03 07:30N 44°07' W 069°06'0 0.0
2018-Jan-03 06:58N 44°07' W 069°06'0 0.0
2018-Jan-03 06:30N 44°07' W 069°06'0 0.0
2018-Jan-03 05:59N 44°07' W 069°06'0 0.0
2018-Jan-03 05:30N 44°07' W 069°06'0 0.0
2018-Jan-03 05:00N 44°07' W 069°06'0 0.0
2018-Jan-03 04:29N 44°07' W 069°06'0 0.0
2018-Jan-03 04:00N 44°07' W 069°06'0 0.0
2018-Jan-03 03:30N 44°07' W 069°06'0 0.0
2018-Jan-03 02:59N 44°07' W 069°06'0 0.0
2018-Jan-03 02:30N 44°07' W 069°06'0 0.0
2018-Jan-03 01:59N 44°07' W 069°06'0 0.0
2018-Jan-03 01:30N 44°07' W 069°06'0 0.0
2018-Jan-03 00:59N 44°07' W 069°06'0 0.0
2018-Jan-03 00:30N 44°07' W 069°06'0 0.0
2018-Jan-03 00:00N 44°07' W 069°06'0 0.0
2018-Jan-02 23:29N 44°07' W 069°06'0 0.0
2018-Jan-02 22:59N 44°07' W 069°06'0 0.0
2018-Jan-02 22:30N 44°07' W 069°06'0 0.0
2018-Jan-02 21:59N 44°07' W 069°06'0 0.0
2018-Jan-02 21:30N 44°07' W 069°06'0 0.0
2018-Jan-02 20:59N 44°07' W 069°06'0 0.0
2018-Jan-02 20:30N 44°07' W 069°06'0 0.0
2018-Jan-02 20:00N 44°07' W 069°06'0 0.0
2018-Jan-02 19:30N 44°07' W 069°06'0 0.0
2018-Jan-02 19:00N 44°07' W 069°06'0 0.0
2018-Jan-02 18:29N 44°07' W 069°06'0 0.0
2018-Jan-02 17:59N 44°07' W 069°06'0 0.0
2018-Jan-02 17:30N 44°07' W 069°06'0 0.0
2018-Jan-02 16:58N 44°07' W 069°06'0 0.0
2018-Jan-02 16:30N 44°07' W 069°06'0 0.0
2018-Jan-02 15:59N 44°07' W 069°06'0 0.0
2018-Jan-02 15:30N 44°07' W 069°06'0 0.0
2018-Jan-02 14:58N 44°07' W 069°06'0 0.0
2018-Jan-02 14:29N 44°07' W 069°06'0 0.0
2018-Jan-02 14:00N 44°07' W 069°06'0 0.0
2018-Jan-02 13:29N 44°07' W 069°06'0 0.0
2018-Jan-02 13:00N 44°07' W 069°06'0 0.0
2018-Jan-02 12:29N 44°07' W 069°06'0 0.0
2018-Jan-02 12:00N 44°07' W 069°06'0 0.0
2018-Jan-02 11:29N 44°07' W 069°06'0 0.0
2018-Jan-02 11:00N 44°07' W 069°06'0 0.0
2018-Jan-02 10:29N 44°07' W 069°06'0 0.0
2018-Jan-02 09:58N 44°07' W 069°06'0 0.0
2018-Jan-02 09:29N 44°07' W 069°06'0 0.0
2018-Jan-02 08:30N 44°07' W 069°06'0 0.0
2018-Jan-02 08:00N 44°07' W 069°06'0 0.0
2018-Jan-02 07:29N 44°07' W 069°06'0 0.0
2018-Jan-02 06:54N 44°07' W 069°06'0 0.0
2018-Jan-02 06:30N 44°07' W 069°06'0 0.0
2018-Jan-02 05:58N 44°07' W 069°06'0 0.0
2018-Jan-02 05:29N 44°07' W 069°06'0 0.0
2018-Jan-02 04:28N 44°07' W 069°06'0 0.0
2018-Jan-02 03:58N 44°07' W 069°06'0 0.0
2018-Jan-02 03:28N 44°07' W 069°06'0 0.0
2018-Jan-02 02:58N 44°07' W 069°06'0 0.0
2018-Jan-02 02:28N 44°07' W 069°06'0 0.0
2018-Jan-02 02:01N 44°07' W 069°06'0 0.0
2018-Jan-02 01:29N 44°07' W 069°06'0 0.0
2018-Jan-02 00:59N 44°07' W 069°06'0 0.0
2018-Jan-02 00:30N 44°07' W 069°06'0 0.0
2018-Jan-02 00:00N 44°07' W 069°06'0 0.0
2018-Jan-01 23:28N 44°07' W 069°06'0 0.0
2018-Jan-01 22:59N 44°07' W 069°06'0 0.0
2018-Jan-01 22:29N 44°07' W 069°06'0 0.0
2018-Jan-01 22:00N 44°07' W 069°06'0 0.0
2018-Jan-01 21:30N 44°07' W 069°06'0 0.0
2018-Jan-01 21:00N 44°07' W 069°06'0 0.0
2018-Jan-01 20:30N 44°07' W 069°06'0 0.0
2018-Jan-01 19:59N 44°07' W 069°06'0 0.0
2018-Jan-01 19:28N 44°07' W 069°06'0 0.0
2018-Jan-01 18:58N 44°07' W 069°06'0 0.0
2018-Jan-01 18:30N 44°07' W 069°06'0 0.0
2018-Jan-01 18:00N 44°07' W 069°06'0 0.0
2018-Jan-01 17:30N 44°07' W 069°06'0 0.0
2018-Jan-01 14:59N 44°07' W 069°06'0 0.0
2018-Jan-01 14:30N 44°07' W 069°06'0 0.0
2018-Jan-01 13:59N 44°07' W 069°06'0 0.0
2018-Jan-01 13:30N 44°07' W 069°06'0 0.0
2018-Jan-01 12:58N 44°07' W 069°06'0 0.0
2018-Jan-01 11:59N 44°07' W 069°06'0 0.0
2018-Jan-01 11:30N 44°07' W 069°06'0 0.0
2018-Jan-01 10:59N 44°07' W 069°06'0 0.0
2018-Jan-01 10:30N 44°07' W 069°06'0 0.0
2018-Jan-01 10:00N 44°07' W 069°06'0 0.0
2018-Jan-01 09:29N 44°07' W 069°06'0 0.0
2018-Jan-01 08:30N 44°07' W 069°06'0 0.0
2018-Jan-01 08:00N 44°07' W 069°06'0 0.0
2018-Jan-01 07:30N 44°07' W 069°06'0 0.0
2018-Jan-01 06:59N 44°07' W 069°06'0 0.0
2018-Jan-01 05:58N 44°07' W 069°06'0 0.0
2018-Jan-01 05:29N 44°07' W 069°06'0 0.0
2018-Jan-01 05:00N 44°07' W 069°06'0 0.0
2018-Jan-01 03:58N 44°07' W 069°06'0 0.0
2018-Jan-01 03:29N 44°07' W 069°06'0 0.0
2018-Jan-01 03:00N 44°07' W 069°06'0 0.0
2018-Jan-01 02:29N 44°07' W 069°06'0 0.0
2018-Jan-01 02:00N 44°07' W 069°06'0 0.0
2018-Jan-01 01:28N 44°07' W 069°06'0 0.0
2018-Jan-01 00:30N 44°07' W 069°06'0 0.0
2017-Dec-31 21:00N 44°07' W 069°06'0 0.0
2017-Dec-31 20:30N 44°07' W 069°06'0 0.0
2017-Dec-31 20:00N 44°07' W 069°06'0 0.0
2017-Dec-31 19:30N 44°07' W 069°06'0 0.0
2017-Dec-31 19:00N 44°07' W 069°06'0 0.0
2017-Dec-31 18:29N 44°07' W 069°06'0 0.0
2017-Dec-31 18:00N 44°07' W 069°06'0 0.0
2017-Dec-31 17:29N 44°07' W 069°06'0 0.0
2017-Dec-31 16:59N 44°07' W 069°06'0 0.0
2017-Dec-31 16:30N 44°07' W 069°06'0 0.0
2017-Dec-31 16:00N 44°07' W 069°06'0 0.0
2017-Dec-31 15:30N 44°07' W 069°06'0 0.0
2017-Dec-31 15:00N 44°07' W 069°06'0 0.0
2017-Dec-31 14:30N 44°07' W 069°06'0 0.0
2017-Dec-31 13:59N 44°07' W 069°06'0 0.0
2017-Dec-31 13:30N 44°07' W 069°06'0 0.0
2017-Dec-31 13:00N 44°07' W 069°06'0 0.0
2017-Dec-31 12:30N 44°07' W 069°06'0 0.0
2017-Dec-31 11:59N 44°07' W 069°06'0 0.0
2017-Dec-31 11:29N 44°07' W 069°06'0 0.0
2017-Dec-31 11:00N 44°07' W 069°06'0 0.0
2017-Dec-31 10:29N 44°07' W 069°06'0 0.0
2017-Dec-31 09:58N 44°07' W 069°06'0 0.0
2017-Dec-31 09:29N 44°07' W 069°06'0 0.0
2017-Dec-31 08:59N 44°07' W 069°06'0 0.0
2017-Dec-31 08:28N 44°07' W 069°06'0 0.0
2017-Dec-31 07:58N 44°07' W 069°06'0 0.0
2017-Dec-31 07:29N 44°07' W 069°06'0 0.0
2017-Dec-31 07:00N 44°07' W 069°06'0 0.0
2017-Dec-31 06:30N 44°07' W 069°06'0 0.0
2017-Dec-31 06:00N 44°07' W 069°06'0 0.0
2017-Dec-31 05:30N 44°07' W 069°06'0 0.0
2017-Dec-31 05:00N 44°07' W 069°06'0 0.0
2017-Dec-31 04:30N 44°07' W 069°06'  
Track history (hours):
 
Tides and Currents Weather Stations Pressure Air Temp Water Temp Dewpoint Dewpoint Depression Visibility Wind Speed Wind Dir Waves Ship Positions

Sunlight

Owner: O'Hara Corporation, Rockland, ME. More information available from US FCC via Universal Licensing System and Coast Guard Vessel Documentation Center.

Last reported at 2018-Jan-10 04:15 UTC. Time now 2018-Feb-22 09:24 UTC.
Position N 42°13' W 070°30'.
Warning: this ship's position is 43 days out of date.

MMSI: 366900670.

Date/timePositionNaut miles runAvg speedWind from/ knotsBaromVisibWave heightAir tempDewpointWater temp
2018-Jan-10 04:15N 42°13' W 070°30'2 9.5
2018-Jan-10 04:00N 42°16' W 070°31'5 9.8
2018-Jan-10 03:30N 42°20' W 070°31'510.1
2018-Jan-10 03:00N 42°25' W 070°32'510.1
2018-Jan-10 02:30N 42°30' W 070°32'510.1
2018-Jan-10 02:00N 42°36' W 070°32'5 9.7
2018-Jan-10 01:30N 42°40' W 070°31'5 9.9
2018-Jan-10 01:00N 42°45' W 070°29'510.2
2018-Jan-10 00:30N 42°50' W 070°28'510.1
2018-Jan-10 00:00N 42°55' W 070°26'84 8.7
2018-Jan-09 14:17N 43°58' W 069°08'410.1
2018-Jan-09 13:55N 44°01' W 069°05'410.1
2018-Jan-09 13:30N 44°05' W 069°03'3 6.3
2018-Jan-09 13:00N 44°07' W 069°06'0 0.3
2018-Jan-09 12:29N 44°07' W 069°06'0 0.0
2018-Jan-09 12:00N 44°07' W 069°06'0 0.0
2018-Jan-09 11:28N 44°07' W 069°06'0 0.0
2018-Jan-09 10:59N 44°07' W 069°06'0 0.0
2018-Jan-09 10:30N 44°07' W 069°06'0 0.0
2018-Jan-09 09:58N 44°07' W 069°06'0 0.0
2018-Jan-09 09:30N 44°07' W 069°06'0 0.0
2018-Jan-09 09:00N 44°07' W 069°06'0 0.0
2018-Jan-09 08:30N 44°07' W 069°06'0 0.0
2018-Jan-09 07:58N 44°07' W 069°06'0 0.0
2018-Jan-09 07:28N 44°07' W 069°06'0 0.0
2018-Jan-09 06:59N 44°07' W 069°06'0 0.0
2018-Jan-09 06:30N 44°07' W 069°06'0 0.0
2018-Jan-09 05:58N 44°07' W 069°06'0 0.0
2018-Jan-09 05:29N 44°07' W 069°06'0 0.0
2018-Jan-09 05:00N 44°07' W 069°06'0 0.0
2018-Jan-09 04:27N 44°07' W 069°06'0 0.0
2018-Jan-09 03:58N 44°07' W 069°06'0 0.0
2018-Jan-09 03:28N 44°07' W 069°06'0 0.0
2018-Jan-09 03:00N 44°07' W 069°06'0 0.0
2018-Jan-09 02:30N 44°07' W 069°06'0 0.0
2018-Jan-09 01:58N 44°07' W 069°06'0 0.0
2018-Jan-09 01:29N 44°07' W 069°06'0 0.0
2018-Jan-09 01:00N 44°07' W 069°06'0 0.0
2018-Jan-09 00:28N 44°07' W 069°06'0 0.0
2018-Jan-08 23:58N 44°07' W 069°06'0 0.0
2018-Jan-08 23:29N 44°07' W 069°06'0 0.0
2018-Jan-08 23:00N 44°07' W 069°06'0 0.0
2018-Jan-08 22:28N 44°07' W 069°06'0 0.0
2018-Jan-08 21:59N 44°07' W 069°06'0 0.0
2018-Jan-08 21:28N 44°07' W 069°06'0 0.0
2018-Jan-08 20:59N 44°07' W 069°06'0 0.0
2018-Jan-08 20:30N 44°07' W 069°06'0 0.0
2018-Jan-08 19:58N 44°07' W 069°06'0 0.0
2018-Jan-08 19:28N 44°07' W 069°06'0 0.0
2018-Jan-08 18:59N 44°07' W 069°06'0 0.0
2018-Jan-08 18:30N 44°07' W 069°06'0 0.0
2018-Jan-08 17:59N 44°07' W 069°06'0 0.0
2018-Jan-08 17:29N 44°07' W 069°06'0 0.0
2018-Jan-08 16:59N 44°07' W 069°06'0 0.0
2018-Jan-08 16:28N 44°07' W 069°06'0 0.0
2018-Jan-08 15:59N 44°07' W 069°06'0 0.0
2018-Jan-08 15:26N 44°07' W 069°06'0 0.0
2018-Jan-08 14:58N 44°07' W 069°06'0 0.0
2018-Jan-08 14:30N 44°07' W 069°06'0 0.0
2018-Jan-08 13:58N 44°07' W 069°06'0 0.0
2018-Jan-08 13:28N 44°07' W 069°06'0 0.0
2018-Jan-08 12:59N 44°07' W 069°06'0 0.0
2018-Jan-08 12:27N 44°07' W 069°06'0 0.0
2018-Jan-08 11:58N 44°07' W 069°06'0 0.0
2018-Jan-08 11:29N 44°07' W 069°06'0 0.0
2018-Jan-08 11:00N 44°07' W 069°06'0 0.0
2018-Jan-08 10:30N 44°07' W 069°06'0 0.0
2018-Jan-08 09:58N 44°07' W 069°06'0 0.0
2018-Jan-08 09:27N 44°07' W 069°06'0 0.0
2018-Jan-08 08:59N 44°07' W 069°06'0 0.0
2018-Jan-08 08:30N 44°07' W 069°06'0 0.0
2018-Jan-08 07:58N 44°07' W 069°06'0 0.0
2018-Jan-08 07:28N 44°07' W 069°06'0 0.0
2018-Jan-08 06:59N 44°07' W 069°06'0 0.0
2018-Jan-08 06:27N 44°07' W 069°06'0 0.0
2018-Jan-08 05:59N 44°07' W 069°06'0 0.0
2018-Jan-08 05:30N 44°07' W 069°06'0 0.0
2018-Jan-08 04:59N 44°07' W 069°06'0 0.0
2018-Jan-08 04:30N 44°07' W 069°06'0 0.0
2018-Jan-08 04:00N 44°07' W 069°06'0 0.0
2018-Jan-08 03:28N 44°07' W 069°06'0 0.0
2018-Jan-08 02:59N 44°07' W 069°06'0 0.0
2018-Jan-08 02:27N 44°07' W 069°06'0 0.0
2018-Jan-08 01:58N 44°07' W 069°06'0 0.0
2018-Jan-08 01:28N 44°07' W 069°06'0 0.0
2018-Jan-08 00:59N 44°07' W 069°06'0 0.0
2018-Jan-08 00:29N 44°07' W 069°06'0 0.0
2018-Jan-08 00:00N 44°07' W 069°06'0 0.0
2018-Jan-07 23:28N 44°07' W 069°06'0 0.0
2018-Jan-07 22:59N 44°07' W 069°06'0 0.0
2018-Jan-07 22:30N 44°07' W 069°06'0 0.0
2018-Jan-07 21:58N 44°07' W 069°06'0 0.0
2018-Jan-07 21:29N 44°07' W 069°06'0 0.0
2018-Jan-07 21:00N 44°07' W 069°06'0 0.0
2018-Jan-07 20:28N 44°07' W 069°06'0 0.0
2018-Jan-07 19:59N 44°07' W 069°06'0 0.0
2018-Jan-07 19:28N 44°07' W 069°06'0 0.0
2018-Jan-07 18:58N 44°07' W 069°06'0 0.0
2018-Jan-07 18:29N 44°07' W 069°06'0 0.0
2018-Jan-07 17:57N 44°07' W 069°06'0 0.0
2018-Jan-07 17:29N 44°07' W 069°06'0 0.0
2018-Jan-07 16:58N 44°07' W 069°06'0 0.0
2018-Jan-07 16:29N 44°07' W 069°06'0 0.0
2018-Jan-07 16:00N 44°07' W 069°06'0 0.0
2018-Jan-07 15:26N 44°07' W 069°06'0 0.0
2018-Jan-07 14:58N 44°07' W 069°06'0 0.0
2018-Jan-07 14:29N 44°07' W 069°06'0 0.0
2018-Jan-07 14:00N 44°07' W 069°06'0 0.0
2018-Jan-07 13:28N 44°07' W 069°06'0 0.0
2018-Jan-07 12:59N 44°07' W 069°06'0 0.0
2018-Jan-07 12:29N 44°07' W 069°06'0 0.0
2018-Jan-07 12:00N 44°07' W 069°06'0 0.0
2018-Jan-07 11:28N 44°07' W 069°06'0 0.0
2018-Jan-07 10:58N 44°07' W 069°06'0 0.0
2018-Jan-07 10:30N 44°07' W 069°06'0 0.0
2018-Jan-07 09:59N 44°07' W 069°06'0 0.0
2018-Jan-07 09:29N 44°07' W 069°06'0 0.0
2018-Jan-07 08:59N 44°07' W 069°06'0 0.0
2018-Jan-07 08:30N 44°07' W 069°06'0 0.0
2018-Jan-07 07:59N 44°07' W 069°06'0 0.0
2018-Jan-07 07:28N 44°07' W 069°06'0 0.0
2018-Jan-07 06:59N 44°07' W 069°06'0 0.0
2018-Jan-07 06:31N 44°07' W 069°06'0 0.0
2018-Jan-07 05:59N 44°07' W 069°06'0 0.0
2018-Jan-07 05:28N 44°07' W 069°06'0 0.0
2018-Jan-07 05:00N 44°07' W 069°06'0 0.0
2018-Jan-07 04:30N 44°07' W 069°06'0 0.0
2018-Jan-07 03:59N 44°07' W 069°06'0 0.0
2018-Jan-07 03:28N 44°07' W 069°06'0 0.0
2018-Jan-07 02:59N 44°07' W 069°06'0 0.0
2018-Jan-07 02:30N 44°07' W 069°06'0 0.0
2018-Jan-07 01:59N 44°07' W 069°06'0 0.0
2018-Jan-07 01:29N 44°07' W 069°06'0 0.0
2018-Jan-07 00:30N 44°07' W 069°06'0 0.0
2018-Jan-07 00:00N 44°07' W 069°06'0 0.0
2018-Jan-06 23:30N 44°07' W 069°06'0 0.0
2018-Jan-06 22:59N 44°07' W 069°06'0 0.0
2018-Jan-06 22:30N 44°07' W 069°06'0 0.0
2018-Jan-06 22:00N 44°07' W 069°06'0 0.0
2018-Jan-06 21:29N 44°07' W 069°06'0 0.0
2018-Jan-06 21:00N 44°07' W 069°06'0 0.0
2018-Jan-06 20:30N 44°07' W 069°06'0 0.0
2018-Jan-06 19:59N 44°07' W 069°06'0 0.0
2018-Jan-06 19:30N 44°07' W 069°06'0 0.0
2018-Jan-06 18:59N 44°07' W 069°06'0 0.0
2018-Jan-06 18:30N 44°07' W 069°06'0 0.0
2018-Jan-06 17:59N 44°07' W 069°06'0 0.0
2018-Jan-06 17:29N 44°07' W 069°06'0 0.0
2018-Jan-06 16:59N 44°07' W 069°06'0 0.0
2018-Jan-06 16:29N 44°07' W 069°06'0 0.0
2018-Jan-06 16:00N 44°07' W 069°06'0 0.0
2018-Jan-06 15:30N 44°07' W 069°06'0 0.0
2018-Jan-06 15:00N 44°07' W 069°06'0 0.0
2018-Jan-06 14:30N 44°07' W 069°06'0 0.0
2018-Jan-06 13:58N 44°07' W 069°06'0 0.0
2018-Jan-06 13:30N 44°07' W 069°06'0 0.0
2018-Jan-06 13:00N 44°07' W 069°06'0 0.0
2018-Jan-06 12:30N 44°07' W 069°06'0 0.0
2018-Jan-06 12:00N 44°07' W 069°06'0 0.0
2018-Jan-06 11:30N 44°07' W 069°06'0 0.0
2018-Jan-06 10:59N 44°07' W 069°06'0 0.0
2018-Jan-06 10:29N 44°07' W 069°06'0 0.0
2018-Jan-06 09:58N 44°07' W 069°06'0 0.0
2018-Jan-06 09:30N 44°07' W 069°06'0 0.0
2018-Jan-06 09:00N 44°07' W 069°06'0 0.0
2018-Jan-06 08:28N 44°07' W 069°06'0 0.0
2018-Jan-06 07:59N 44°07' W 069°06'0 0.0
2018-Jan-06 07:30N 44°07' W 069°06'0 0.0
2018-Jan-06 06:58N 44°07' W 069°06'0 0.0
2018-Jan-06 06:30N 44°07' W 069°06'0 0.0
2018-Jan-06 05:59N 44°07' W 069°06'0 0.0
2018-Jan-06 05:30N 44°07' W 069°06'0 0.0
2018-Jan-06 05:00N 44°07' W 069°06'0 0.0
2018-Jan-06 04:30N 44°07' W 069°06'0 0.0
2018-Jan-06 03:59N 44°07' W 069°06'0 0.0
2018-Jan-06 03:28N 44°07' W 069°06'0 0.0
2018-Jan-06 02:59N 44°07' W 069°06'0 0.0
2018-Jan-06 02:30N 44°07' W 069°06'0 0.0
2018-Jan-06 01:59N 44°07' W 069°06'0 0.0
2018-Jan-06 01:29N 44°07' W 069°06'0 0.0
2018-Jan-06 01:00N 44°07' W 069°06'0 0.0
2018-Jan-06 00:28N 44°07' W 069°06'0 0.0
2018-Jan-05 23:58N 44°07' W 069°06'0 0.0
2018-Jan-05 23:28N 44°07' W 069°06'0 0.0
2018-Jan-05 22:58N 44°07' W 069°06'0 0.0
2018-Jan-05 22:30N 44°07' W 069°06'0 0.0
2018-Jan-05 21:59N 44°07' W 069°06'0 0.0
2018-Jan-05 21:29N 44°07' W 069°06'0 0.0
2018-Jan-05 20:59N 44°07' W 069°06'0 0.0
2018-Jan-05 20:29N 44°07' W 069°06'0 0.0
2018-Jan-05 20:00N 44°07' W 069°06'0 0.0
2018-Jan-05 19:29N 44°07' W 069°06'0 0.0
2018-Jan-05 18:59N 44°07' W 069°06'0 0.0
2018-Jan-05 18:30N 44°07' W 069°06'0 0.0
2018-Jan-05 17:58N 44°07' W 069°06'0 0.0
2018-Jan-05 17:30N 44°07' W 069°06'0 0.0
2018-Jan-05 17:00N 44°07' W 069°06'0 0.0
2018-Jan-05 16:30N 44°07' W 069°06'0 0.0
2018-Jan-05 15:59N 44°07' W 069°06'0 0.0
2018-Jan-05 15:29N 44°07' W 069°06'0 0.0
2018-Jan-05 14:59N 44°07' W 069°06'0 0.0
2018-Jan-05 14:29N 44°07' W 069°06'0 0.0
2018-Jan-05 13:59N 44°07' W 069°06'0 0.0
2018-Jan-05 13:30N 44°07' W 069°06'0 0.0
2018-Jan-05 13:00N 44°07' W 069°06'0 0.0
2018-Jan-05 12:28N 44°07' W 069°06'0 0.0
2018-Jan-05 11:59N 44°07' W 069°06'0 0.0
2018-Jan-05 11:30N 44°07' W 069°06'0 0.0
2018-Jan-05 10:59N 44°07' W 069°06'0 0.0
2018-Jan-05 10:30N 44°07' W 069°06'0 0.0
2018-Jan-05 10:00N 44°07' W 069°06'0 0.0
2018-Jan-05 09:30N 44°07' W 069°06'0 0.0
2018-Jan-05 08:59N 44°07' W 069°06'0 0.0
2018-Jan-05 08:28N 44°07' W 069°06'0 0.0
2018-Jan-05 07:59N 44°07' W 069°06'0 0.0
2018-Jan-05 07:30N 44°07' W 069°06'0 0.0
2018-Jan-05 07:00N 44°07' W 069°06'0 0.0
2018-Jan-05 06:31N 44°07' W 069°06'0 0.0
2018-Jan-05 05:58N 44°07' W 069°06'0 0.0
2018-Jan-05 05:29N 44°07' W 069°06'0 0.0
2018-Jan-05 04:59N 44°07' W 069°06'0 0.0
2018-Jan-05 04:30N 44°07' W 069°06'0 0.0
2018-Jan-05 04:00N 44°07' W 069°06'0 0.0
2018-Jan-05 03:30N 44°07' W 069°06'0 0.0
2018-Jan-05 03:00N 44°07' W 069°06'0 0.0
2018-Jan-05 02:30N 44°07' W 069°06'0 0.0
2018-Jan-05 01:59N 44°07' W 069°06'0 0.0
2018-Jan-05 01:28N 44°07' W 069°06'0 0.0
2018-Jan-05 01:00N 44°07' W 069°06'0 0.0
2018-Jan-05 00:29N 44°07' W 069°06'0 0.0
2018-Jan-04 23:58N 44°07' W 069°06'0 0.0
2018-Jan-04 23:29N 44°07' W 069°06'0 0.0
2018-Jan-04 23:00N 44°07' W 069°06'0 0.0
2018-Jan-04 22:31N 44°07' W 069°06'0 0.0
2018-Jan-04 22:00N 44°07' W 069°06'0 0.0
2018-Jan-04 21:29N 44°07' W 069°06'0 0.0
2018-Jan-04 20:59N 44°07' W 069°06'0 0.0
2018-Jan-04 20:29N 44°07' W 069°06'0 0.0
2018-Jan-04 19:59N 44°07' W 069°06'0 0.0
2018-Jan-04 19:30N 44°07' W 069°06'0 0.0
2018-Jan-04 19:00N 44°07' W 069°06'0 0.0
2018-Jan-04 18:29N 44°07' W 069°06'0 0.0
2018-Jan-04 18:00N 44°07' W 069°06'0 0.0
2018-Jan-04 17:29N 44°07' W 069°06'0 0.0
2018-Jan-04 17:00N 44°07' W 069°06'0 0.0
2018-Jan-04 16:30N 44°07' W 069°06'0 0.0
2018-Jan-04 15:58N 44°07' W 069°06'0 0.0
2018-Jan-04 15:30N 44°07' W 069°06'0 0.0
2018-Jan-04 14:59N 44°07' W 069°06'0 0.0
2018-Jan-04 14:30N 44°07' W 069°06'0 0.0
2018-Jan-04 13:59N 44°07' W 069°06'0 0.0
2018-Jan-04 13:29N 44°07' W 069°06'0 0.0
2018-Jan-04 12:59N 44°07' W 069°06'0 0.0
2018-Jan-04 12:29N 44°07' W 069°06'0 0.0
2018-Jan-04 12:00N 44°07' W 069°06'0 0.0
2018-Jan-04 11:29N 44°07' W 069°06'0 0.0
2018-Jan-04 11:00N 44°07' W 069°06'0 0.0
2018-Jan-04 10:29N 44°07' W 069°06'0 0.0
2018-Jan-04 09:59N 44°07' W 069°06'0 0.0
2018-Jan-04 09:30N 44°07' W 069°06'0 0.0
2018-Jan-04 09:00N 44°07' W 069°06'0 0.0
2018-Jan-04 08:30N 44°07' W 069°06'0 0.0
2018-Jan-04 07:58N 44°07' W 069°06'0 0.0
2018-Jan-04 07:30N 44°07' W 069°06'0 0.0
2018-Jan-04 07:00N 44°07' W 069°06'0 0.0
2018-Jan-04 06:29N 44°07' W 069°06'0 0.0
2018-Jan-04 06:00N 44°07' W 069°06'0 0.0
2018-Jan-04 05:29N 44°07' W 069°06'0 0.0
2018-Jan-04 04:58N 44°07' W 069°06'0 0.0
2018-Jan-04 04:30N 44°07' W 069°06'0 0.0
2018-Jan-04 04:00N 44°07' W 069°06'0 0.0
2018-Jan-04 03:29N 44°07' W 069°06'0 0.0
2018-Jan-04 02:58N 44°07' W 069°06'0 0.0
2018-Jan-04 02:29N 44°07' W 069°06'0 0.0
2018-Jan-04 02:00N 44°07' W 069°06'0 0.0
2018-Jan-04 01:29N 44°07' W 069°06'0 0.0
2018-Jan-04 00:59N 44°07' W 069°06'0 0.0
2018-Jan-04 00:29N 44°07' W 069°06'0 0.0
2018-Jan-04 00:00N 44°07' W 069°06'0 0.0
2018-Jan-03 23:29N 44°07' W 069°06'0 0.0
2018-Jan-03 23:00N 44°07' W 069°06'0 0.0
2018-Jan-03 22:30N 44°07' W 069°06'0 0.0
2018-Jan-03 21:59N 44°07' W 069°06'0 0.0
2018-Jan-03 21:28N 44°07' W 069°06'0 0.0
2018-Jan-03 20:59N 44°07' W 069°06'0 0.0
2018-Jan-03 20:29N 44°07' W 069°06'0 0.0
2018-Jan-03 19:58N 44°07' W 069°06'0 0.0
2018-Jan-03 19:30N 44°07' W 069°06'0 0.0
2018-Jan-03 19:00N 44°07' W 069°06'0 0.0
2018-Jan-03 18:30N 44°07' W 069°06'0 0.0
2018-Jan-03 17:58N 44°07' W 069°06'0 0.0
2018-Jan-03 17:28N 44°07' W 069°06'0 0.0
2018-Jan-03 16:59N 44°07' W 069°06'0 0.0
2018-Jan-03 16:29N 44°07' W 069°06'0 0.0
2018-Jan-03 15:59N 44°07' W 069°06'0 0.0
2018-Jan-03 15:30N 44°07' W 069°06'0 0.0
2018-Jan-03 14:59N 44°07' W 069°06'0 0.0
2018-Jan-03 14:30N 44°07' W 069°06'0 0.0
2018-Jan-03 14:00N 44°07' W 069°06'0 0.0
2018-Jan-03 13:30N 44°07' W 069°06'0 0.0
2018-Jan-03 13:00N 44°07' W 069°06'0 0.0
2018-Jan-03 12:30N 44°07' W 069°06'0 0.0
2018-Jan-03 11:53N 44°07' W 069°06'0 0.0
2018-Jan-03 11:29N 44°07' W 069°06'0 0.0
2018-Jan-03 11:00N 44°07' W 069°06'0 0.0
2018-Jan-03 10:30N 44°07' W 069°06'0 0.0
2018-Jan-03 10:00N 44°07' W 069°06'0 0.0
2018-Jan-03 09:29N 44°07' W 069°06'0 0.0
2018-Jan-03 08:59N 44°07' W 069°06'0 0.0
2018-Jan-03 08:30N 44°07' W 069°06'0 0.0
2018-Jan-03 08:00N 44°07' W 069°06'0 0.0
2018-Jan-03 07:30N 44°07' W 069°06'0 0.0
2018-Jan-03 06:58N 44°07' W 069°06'0 0.0
2018-Jan-03 06:30N 44°07' W 069°06'0 0.0
2018-Jan-03 05:59N 44°07' W 069°06'0 0.0
2018-Jan-03 05:30N 44°07' W 069°06'0 0.0
2018-Jan-03 05:00N 44°07' W 069°06'0 0.0
2018-Jan-03 04:29N 44°07' W 069°06'0 0.0
2018-Jan-03 04:00N 44°07' W 069°06'0 0.0
2018-Jan-03 03:30N 44°07' W 069°06'0 0.0
2018-Jan-03 02:59N 44°07' W 069°06'0 0.0
2018-Jan-03 02:30N 44°07' W 069°06'0 0.0
2018-Jan-03 01:59N 44°07' W 069°06'0 0.0
2018-Jan-03 01:30N 44°07' W 069°06'0 0.0
2018-Jan-03 00:59N 44°07' W 069°06'0 0.0
2018-Jan-03 00:30N 44°07' W 069°06'0 0.0
2018-Jan-03 00:00N 44°07' W 069°06'0 0.0
2018-Jan-02 23:29N 44°07' W 069°06'0 0.0
2018-Jan-02 22:59N 44°07' W 069°06'0 0.0
2018-Jan-02 22:30N 44°07' W 069°06'0 0.0
2018-Jan-02 21:59N 44°07' W 069°06'0 0.0
2018-Jan-02 21:30N 44°07' W 069°06'0 0.0
2018-Jan-02 20:59N 44°07' W 069°06'0 0.0
2018-Jan-02 20:30N 44°07' W 069°06'0 0.0
2018-Jan-02 20:00N 44°07' W 069°06'0 0.0
2018-Jan-02 19:30N 44°07' W 069°06'0 0.0
2018-Jan-02 19:00N 44°07' W 069°06'0 0.0
2018-Jan-02 18:29N 44°07' W 069°06'0 0.0
2018-Jan-02 17:59N 44°07' W 069°06'0 0.0
2018-Jan-02 17:30N 44°07' W 069°06'0 0.0
2018-Jan-02 16:58N 44°07' W 069°06'0 0.0
2018-Jan-02 16:30N 44°07' W 069°06'0 0.0
2018-Jan-02 15:59N 44°07' W 069°06'0 0.0
2018-Jan-02 15:30N 44°07' W 069°06'0 0.0
2018-Jan-02 14:58N 44°07' W 069°06'0 0.0
2018-Jan-02 14:29N 44°07' W 069°06'0 0.0
2018-Jan-02 14:00N 44°07' W 069°06'0 0.0
2018-Jan-02 13:29N 44°07' W 069°06'0 0.0
2018-Jan-02 13:00N 44°07' W 069°06'0 0.0
2018-Jan-02 12:29N 44°07' W 069°06'0 0.0
2018-Jan-02 12:00N 44°07' W 069°06'0 0.0
2018-Jan-02 11:29N 44°07' W 069°06'0 0.0
2018-Jan-02 11:00N 44°07' W 069°06'0 0.0
2018-Jan-02 10:29N 44°07' W 069°06'0 0.0
2018-Jan-02 09:58N 44°07' W 069°06'0 0.0
2018-Jan-02 09:29N 44°07' W 069°06'0 0.0
2018-Jan-02 08:30N 44°07' W 069°06'0 0.0
2018-Jan-02 08:00N 44°07' W 069°06'0 0.0
2018-Jan-02 07:29N 44°07' W 069°06'0 0.0
2018-Jan-02 06:54N 44°07' W 069°06'0 0.0
2018-Jan-02 06:30N 44°07' W 069°06'0 0.0
2018-Jan-02 05:58N 44°07' W 069°06'0 0.0
2018-Jan-02 05:29N 44°07' W 069°06'0 0.0
2018-Jan-02 04:28N 44°07' W 069°06'0 0.0
2018-Jan-02 03:58N 44°07' W 069°06'0 0.0
2018-Jan-02 03:28N 44°07' W 069°06'0 0.0
2018-Jan-02 02:58N 44°07' W 069°06'0 0.0
2018-Jan-02 02:28N 44°07' W 069°06'0 0.0
2018-Jan-02 02:01N 44°07' W 069°06'0 0.0
2018-Jan-02 01:29N 44°07' W 069°06'0 0.0
2018-Jan-02 00:59N 44°07' W 069°06'0 0.0
2018-Jan-02 00:30N 44°07' W 069°06'0 0.0
2018-Jan-02 00:00N 44°07' W 069°06'0 0.0
2018-Jan-01 23:28N 44°07' W 069°06'0 0.0
2018-Jan-01 22:59N 44°07' W 069°06'0 0.0
2018-Jan-01 22:29N 44°07' W 069°06'0 0.0
2018-Jan-01 22:00N 44°07' W 069°06'0 0.0
2018-Jan-01 21:30N 44°07' W 069°06'0 0.0
2018-Jan-01 21:00N 44°07' W 069°06'0 0.0
2018-Jan-01 20:30N 44°07' W 069°06'0 0.0
2018-Jan-01 19:59N 44°07' W 069°06'0 0.0
2018-Jan-01 19:28N 44°07' W 069°06'0 0.0
2018-Jan-01 18:58N 44°07' W 069°06'0 0.0
2018-Jan-01 18:30N 44°07' W 069°06'0 0.0
2018-Jan-01 18:00N 44°07' W 069°06'0 0.0
2018-Jan-01 17:30N 44°07' W 069°06'0 0.0
2018-Jan-01 14:59N 44°07' W 069°06'0 0.0
2018-Jan-01 14:30N 44°07' W 069°06'0 0.0
2018-Jan-01 13:59N 44°07' W 069°06'0 0.0
2018-Jan-01 13:30N 44°07' W 069°06'0 0.0
2018-Jan-01 12:58N 44°07' W 069°06'0 0.0
2018-Jan-01 11:59N 44°07' W 069°06'0 0.0
2018-Jan-01 11:30N 44°07' W 069°06'0 0.0
2018-Jan-01 10:59N 44°07' W 069°06'0 0.0
2018-Jan-01 10:30N 44°07' W 069°06'0 0.0
2018-Jan-01 10:00N 44°07' W 069°06'0 0.0
2018-Jan-01 09:29N 44°07' W 069°06'0 0.0
2018-Jan-01 08:30N 44°07' W 069°06'0 0.0
2018-Jan-01 08:00N 44°07' W 069°06'0 0.0
2018-Jan-01 07:30N 44°07' W 069°06'0 0.0
2018-Jan-01 06:59N 44°07' W 069°06'0 0.0
2018-Jan-01 05:58N 44°07' W 069°06'0 0.0
2018-Jan-01 05:29N 44°07' W 069°06'0 0.0
2018-Jan-01 05:00N 44°07' W 069°06'0 0.0
2018-Jan-01 03:58N 44°07' W 069°06'0 0.0
2018-Jan-01 03:29N 44°07' W 069°06'0 0.0
2018-Jan-01 03:00N 44°07' W 069°06'0 0.0
2018-Jan-01 02:29N 44°07' W 069°06'0 0.0
2018-Jan-01 02:00N 44°07' W 069°06'0 0.0
2018-Jan-01 01:28N 44°07' W 069°06'0 0.0
2018-Jan-01 00:30N 44°07' W 069°06'0 0.0
2017-Dec-31 21:00N 44°07' W 069°06'0 0.0
2017-Dec-31 20:30N 44°07' W 069°06'0 0.0
2017-Dec-31 20:00N 44°07' W 069°06'0 0.0
2017-Dec-31 19:30N 44°07' W 069°06'0 0.0
2017-Dec-31 19:00N 44°07' W 069°06'0 0.0
2017-Dec-31 18:29N 44°07' W 069°06'0 0.0
2017-Dec-31 18:00N 44°07' W 069°06'0 0.0
2017-Dec-31 17:29N 44°07' W 069°06'0 0.0
2017-Dec-31 16:59N 44°07' W 069°06'0 0.0
2017-Dec-31 16:30N 44°07' W 069°06'0 0.0
2017-Dec-31 16:00N 44°07' W 069°06'0 0.0
2017-Dec-31 15:30N 44°07' W 069°06'0 0.0
2017-Dec-31 15:00N 44°07' W 069°06'0 0.0
2017-Dec-31 14:30N 44°07' W 069°06'0 0.0
2017-Dec-31 13:59N 44°07' W 069°06'0 0.0
2017-Dec-31 13:30N 44°07' W 069°06'0 0.0
2017-Dec-31 13:00N 44°07' W 069°06'0 0.0
2017-Dec-31 12:30N 44°07' W 069°06'0 0.0
2017-Dec-31 11:59N 44°07' W 069°06'0 0.0
2017-Dec-31 11:29N 44°07' W 069°06'0 0.0
2017-Dec-31 11:00N 44°07' W 069°06'0 0.0
2017-Dec-31 10:29N 44°07' W 069°06'0 0.0
2017-Dec-31 09:58N 44°07' W 069°06'0 0.0
2017-Dec-31 09:29N 44°07' W 069°06'0 0.0
2017-Dec-31 08:59N 44°07' W 069°06'0 0.0
2017-Dec-31 08:28N 44°07' W 069°06'0 0.0
2017-Dec-31 07:58N 44°07' W 069°06'0 0.0
2017-Dec-31 07:29N 44°07' W 069°06'0 0.0
2017-Dec-31 07:00N 44°07' W 069°06'0 0.0
2017-Dec-31 06:30N 44°07' W 069°06'0 0.0
2017-Dec-31 06:00N 44°07' W 069°06'0 0.0
2017-Dec-31 05:30N 44°07' W 069°06'0 0.0
2017-Dec-31 05:00N 44°07' W 069°06'0 0.0
2017-Dec-31 04:30N 44°07' W 069°06'  

Dump ship's entire track history